Ninghai — 9V5442 — position and weather

sailwx.info

Track history (hours):
 
Tides and Currents Weather Stations Pressure Air Temp Water Temp Dewpoint Dewpoint Depression Visibility Wind Speed Wind Dir Waves Ship Positions

Ninghai

Last reported at 2018-Apr-19 23:00 UTC. Time now 2018-Apr-19 23:25 UTC.
Position S 34°51' E 138°14'.

Length 180 m; draft 7.6 m.

Type: Cargo ship. MMSI: 563019700.

Date/timePositionNaut miles runAvg speedWind from/ knotsBaromVisibWave heightAir tempDewpointWater temp
2018-Apr-19 23:00S 34°51' E 138°14'0 0.0
2018-Apr-19 10:27S 34°51' E 138°14'0 0.0
2018-Apr-19 10:00S 34°51' E 138°14'0 0.0
2018-Apr-19 09:30S 34°50' E 138°14'  
2018-Apr-14 02:54S 31°59' E 115°42'3 7.5
2018-Apr-14 02:30S 32°02' E 115°41'0 0.4
2018-Apr-14 02:00S 32°01' E 115°40'0 0.0
2018-Apr-14 01:27S 32°01' E 115°40'0 0.0
2018-Apr-14 00:54S 32°01' E 115°40'0 0.0
2018-Apr-14 00:30S 32°01' E 115°40'0 0.0
2018-Apr-13 23:57S 32°01' E 115°40'0 0.0
2018-Apr-13 23:30S 32°01' E 115°40'0 0.0
2018-Apr-13 23:00S 32°01' E 115°40'0 0.1
2018-Apr-13 22:30S 32°01' E 115°40'0 0.1
2018-Apr-13 21:57S 32°01' E 115°40'0 0.5
2018-Apr-13 21:30S 32°01' E 115°41'1 2.8
2018-Apr-13 21:00S 32°00' E 115°42'3 5.2
2018-Apr-13 20:30S 31°58' E 115°41'4 8.9
2018-Apr-13 20:00S 31°55' E 115°37'  
Track history (hours):
 
Tides and Currents Weather Stations Pressure Air Temp Water Temp Dewpoint Dewpoint Depression Visibility Wind Speed Wind Dir Waves Ship Positions

Ninghai

Last reported at 2018-Apr-19 23:00 UTC. Time now 2018-Apr-19 23:25 UTC.
Position S 34°51' E 138°14'.

Length 180 m; draft 7.6 m.

Type: Cargo ship. MMSI: 563019700.

Date/timePositionNaut miles runAvg speedWind from/ knotsBaromVisibWave heightAir tempDewpointWater temp
2018-Apr-19 23:00S 34°51' E 138°14'0 0.0
2018-Apr-19 10:27S 34°51' E 138°14'0 0.0
2018-Apr-19 10:00S 34°51' E 138°14'0 0.0
2018-Apr-19 09:30S 34°50' E 138°14'  
2018-Apr-14 02:54S 31°59' E 115°42'3 7.5
2018-Apr-14 02:30S 32°02' E 115°41'0 0.4
2018-Apr-14 02:00S 32°01' E 115°40'0 0.0
2018-Apr-14 01:27S 32°01' E 115°40'0 0.0
2018-Apr-14 00:54S 32°01' E 115°40'0 0.0
2018-Apr-14 00:30S 32°01' E 115°40'0 0.0
2018-Apr-13 23:57S 32°01' E 115°40'0 0.0
2018-Apr-13 23:30S 32°01' E 115°40'0 0.0
2018-Apr-13 23:00S 32°01' E 115°40'0 0.1
2018-Apr-13 22:30S 32°01' E 115°40'0 0.1
2018-Apr-13 21:57S 32°01' E 115°40'0 0.5
2018-Apr-13 21:30S 32°01' E 115°41'1 2.8
2018-Apr-13 21:00S 32°00' E 115°42'3 5.2
2018-Apr-13 20:30S 31°58' E 115°41'4 8.9
2018-Apr-13 20:00S 31°55' E 115°37'  

Dump ship's entire track history